sensor_id;sensor_type;location;lat;lon;timestamp;P1;durP1;ratioP1;P2;durP2;ratioP2
45540;SDS011;31265;49.680;8.608;2023-11-21T00:00:18;4.70;;;0.80;;
45540;SDS011;31265;49.680;8.608;2023-11-21T00:02:51;6.80;;;0.93;;
45540;SDS011;31265;49.680;8.608;2023-11-21T00:05:20;1.58;;;0.45;;
45540;SDS011;31265;49.680;8.608;2023-11-21T00:07:50;2.53;;;0.90;;
45540;SDS011;31265;49.680;8.608;2023-11-21T00:10:18;4.97;;;0.90;;
45540;SDS011;31265;49.680;8.608;2023-11-21T00:12:47;1.53;;;0.40;;
45540;SDS011;31265;49.680;8.608;2023-11-21T00:15:15;1.90;;;0.73;;
45540;SDS011;31265;49.680;8.608;2023-11-21T00:17:45;2.65;;;0.98;;
45540;SDS011;31265;49.680;8.608;2023-11-21T00:20:15;3.60;;;1.13;;
45540;SDS011;31265;49.680;8.608;2023-11-21T00:25:12;2.35;;;0.60;;
45540;SDS011;31265;49.680;8.608;2023-11-21T00:27:42;1.10;;;0.50;;
45540;SDS011;31265;49.680;8.608;2023-11-21T00:30:12;2.00;;;0.73;;
45540;SDS011;31265;49.680;8.608;2023-11-21T00:32:41;3.10;;;0.60;;
45540;SDS011;31265;49.680;8.608;2023-11-21T00:35:10;1.38;;;0.63;;
45540;SDS011;31265;49.680;8.608;2023-11-21T00:37:40;2.83;;;0.95;;
45540;SDS011;31265;49.680;8.608;2023-11-21T00:40:09;2.45;;;0.73;;
45540;SDS011;31265;49.680;8.608;2023-11-21T00:42:41;2.05;;;0.90;;
45540;SDS011;31265;49.680;8.608;2023-11-21T00:45:10;4.32;;;1.20;;
45540;SDS011;31265;49.680;8.608;2023-11-21T00:47:39;2.15;;;0.68;;
45540;SDS011;31265;49.680;8.608;2023-11-21T00:50:07;2.17;;;0.82;;
45540;SDS011;31265;49.680;8.608;2023-11-21T00:55:07;1.92;;;0.88;;
45540;SDS011;31265;49.680;8.608;2023-11-21T00:57:37;5.63;;;1.05;;
45540;SDS011;31265;49.680;8.608;2023-11-21T01:00:06;2.35;;;0.85;;
45540;SDS011;31265;49.680;8.608;2023-11-21T01:02:37;5.53;;;1.60;;
45540;SDS011;31265;49.680;8.608;2023-11-21T01:05:06;2.53;;;1.17;;
45540;SDS011;31265;49.680;8.608;2023-11-21T01:07:35;5.28;;;1.05;;
45540;SDS011;31265;49.680;8.608;2023-11-21T01:10:04;4.65;;;1.50;;
45540;SDS011;31265;49.680;8.608;2023-11-21T01:12:36;2.40;;;0.95;;
45540;SDS011;31265;49.680;8.608;2023-11-21T01:17:35;1.25;;;0.50;;
45540;SDS011;31265;49.680;8.608;2023-11-21T01:20:05;2.55;;;0.90;;
45540;SDS011;31265;49.680;8.608;2023-11-21T01:22:39;8.57;;;0.93;;
45540;SDS011;31265;49.680;8.608;2023-11-21T01:25:09;5.65;;;1.15;;
45540;SDS011;31265;49.680;8.608;2023-11-21T01:27:38;5.50;;;1.30;;
45540;SDS011;31265;49.680;8.608;2023-11-21T01:30:07;2.28;;;0.85;;
45540;SDS011;31265;49.680;8.608;2023-11-21T01:32:37;9.05;;;1.27;;
45540;SDS011;31265;49.680;8.608;2023-11-21T01:35:07;3.25;;;1.00;;
45540;SDS011;31265;49.680;8.608;2023-11-21T01:37:37;2.25;;;1.25;;
45540;SDS011;31265;49.680;8.608;2023-11-21T01:40:06;2.60;;;0.82;;
45540;SDS011;31265;49.680;8.608;2023-11-21T01:42:42;4.90;;;0.70;;
45540;SDS011;31265;49.680;8.608;2023-11-21T01:45:11;1.33;;;0.63;;
45540;SDS011;31265;49.680;8.608;2023-11-21T01:47:41;5.50;;;1.10;;
45540;SDS011;31265;49.680;8.608;2023-11-21T01:50:13;3.20;;;1.08;;
45540;SDS011;31265;49.680;8.608;2023-11-21T01:52:45;7.68;;;0.82;;
45540;SDS011;31265;49.680;8.608;2023-11-21T01:55:16;2.85;;;1.10;;
45540;SDS011;31265;49.680;8.608;2023-11-21T01:58:01;3.88;;;1.10;;
45540;SDS011;31265;49.680;8.608;2023-11-21T02:00:30;5.38;;;0.82;;
45540;SDS011;31265;49.680;8.608;2023-11-21T02:03:00;3.15;;;1.00;;
45540;SDS011;31265;49.680;8.608;2023-11-21T02:05:29;3.22;;;1.05;;
45540;SDS011;31265;49.680;8.608;2023-11-21T02:07:58;4.15;;;2.13;;
45540;SDS011;31265;49.680;8.608;2023-11-21T02:10:27;4.35;;;1.20;;
45540;SDS011;31265;49.680;8.608;2023-11-21T02:12:58;3.30;;;0.90;;
45540;SDS011;31265;49.680;8.608;2023-11-21T02:15:30;5.10;;;1.15;;
45540;SDS011;31265;49.680;8.608;2023-11-21T02:17:59;6.97;;;1.20;;
45540;SDS011;31265;49.680;8.608;2023-11-21T02:20:30;4.07;;;1.35;;
45540;SDS011;31265;49.680;8.608;2023-11-21T02:23:04;3.67;;;0.80;;
45540;SDS011;31265;49.680;8.608;2023-11-21T02:25:33;2.80;;;1.33;;
45540;SDS011;31265;49.680;8.608;2023-11-21T02:28:04;7.45;;;1.65;;
45540;SDS011;31265;49.680;8.608;2023-11-21T02:30:34;2.67;;;1.17;;
45540;SDS011;31265;49.680;8.608;2023-11-21T02:33:04;2.38;;;1.10;;
45540;SDS011;31265;49.680;8.608;2023-11-21T02:35:33;2.58;;;0.95;;
45540;SDS011;31265;49.680;8.608;2023-11-21T02:38:02;3.43;;;1.53;;
45540;SDS011;31265;49.680;8.608;2023-11-21T02:40:31;2.65;;;1.17;;
45540;SDS011;31265;49.680;8.608;2023-11-21T02:43:00;5.80;;;1.88;;
45540;SDS011;31265;49.680;8.608;2023-11-21T02:45:29;3.75;;;0.80;;
45540;SDS011;31265;49.680;8.608;2023-11-21T02:47:57;4.35;;;1.20;;
45540;SDS011;31265;49.680;8.608;2023-11-21T02:50:26;7.38;;;1.20;;
45540;SDS011;31265;49.680;8.608;2023-11-21T02:52:55;4.28;;;1.25;;
45540;SDS011;31265;49.680;8.608;2023-11-21T02:55:25;2.65;;;1.20;;
45540;SDS011;31265;49.680;8.608;2023-11-21T02:57:55;2.70;;;1.30;;
45540;SDS011;31265;49.680;8.608;2023-11-21T03:00:25;5.18;;;1.00;;
45540;SDS011;31265;49.680;8.608;2023-11-21T03:02:54;3.03;;;1.35;;
45540;SDS011;31265;49.680;8.608;2023-11-21T03:05:25;3.08;;;0.90;;
45540;SDS011;31265;49.680;8.608;2023-11-21T03:07:56;6.63;;;1.55;;
45540;SDS011;31265;49.680;8.608;2023-11-21T03:10:25;4.22;;;1.55;;
45540;SDS011;31265;49.680;8.608;2023-11-21T03:12:56;2.90;;;1.23;;
45540;SDS011;31265;49.680;8.608;2023-11-21T03:15:25;4.28;;;1.65;;
45540;SDS011;31265;49.680;8.608;2023-11-21T03:17:53;6.28;;;1.58;;
45540;SDS011;31265;49.680;8.608;2023-11-21T03:20:23;6.35;;;2.13;;
45540;SDS011;31265;49.680;8.608;2023-11-21T03:22:52;2.08;;;1.08;;
45540;SDS011;31265;49.680;8.608;2023-11-21T03:25:21;2.40;;;1.00;;
45540;SDS011;31265;49.680;8.608;2023-11-21T03:30:21;4.68;;;1.75;;
45540;SDS011;31265;49.680;8.608;2023-11-21T03:32:50;5.75;;;1.92;;
45540;SDS011;31265;49.680;8.608;2023-11-21T03:37:48;2.78;;;1.25;;
45540;SDS011;31265;49.680;8.608;2023-11-21T03:40:16;6.70;;;1.55;;
45540;SDS011;31265;49.680;8.608;2023-11-21T03:42:45;6.45;;;1.77;;
45540;SDS011;31265;49.680;8.608;2023-11-21T03:45:13;3.35;;;1.50;;
45540;SDS011;31265;49.680;8.608;2023-11-21T03:47:43;5.30;;;2.22;;
45540;SDS011;31265;49.680;8.608;2023-11-21T03:50:12;5.88;;;2.03;;
45540;SDS011;31265;49.680;8.608;2023-11-21T03:52:42;3.92;;;1.60;;
45540;SDS011;31265;49.680;8.608;2023-11-21T03:55:11;6.33;;;1.50;;
45540;SDS011;31265;49.680;8.608;2023-11-21T03:57:42;8.02;;;1.92;;
45540;SDS011;31265;49.680;8.608;2023-11-21T04:00:11;2.33;;;1.50;;
45540;SDS011;31265;49.680;8.608;2023-11-21T04:02:39;3.85;;;1.75;;
45540;SDS011;31265;49.680;8.608;2023-11-21T04:05:10;4.30;;;1.65;;
45540;SDS011;31265;49.680;8.608;2023-11-21T04:07:39;3.10;;;1.60;;
45540;SDS011;31265;49.680;8.608;2023-11-21T04:10:08;4.03;;;1.60;;
45540;SDS011;31265;49.680;8.608;2023-11-21T04:12:39;7.03;;;1.90;;
45540;SDS011;31265;49.680;8.608;2023-11-21T04:15:08;4.05;;;1.58;;
45540;SDS011;31265;49.680;8.608;2023-11-21T04:17:37;4.22;;;1.67;;
45540;SDS011;31265;49.680;8.608;2023-11-21T04:20:06;2.42;;;1.08;;
45540;SDS011;31265;49.680;8.608;2023-11-21T04:22:39;3.88;;;1.90;;
45540;SDS011;31265;49.680;8.608;2023-11-21T04:25:11;8.63;;;2.42;;
45540;SDS011;31265;49.680;8.608;2023-11-21T04:27:42;7.82;;;1.92;;
45540;SDS011;31265;49.680;8.608;2023-11-21T04:30:12;6.30;;;2.17;;
45540;SDS011;31265;49.680;8.608;2023-11-21T04:35:10;3.08;;;1.58;;
45540;SDS011;31265;49.680;8.608;2023-11-21T04:37:39;6.80;;;1.88;;
45540;SDS011;31265;49.680;8.608;2023-11-21T04:40:09;3.90;;;2.05;;
45540;SDS011;31265;49.680;8.608;2023-11-21T04:42:38;5.80;;;2.78;;
45540;SDS011;31265;49.680;8.608;2023-11-21T04:45:07;5.55;;;2.25;;
45540;SDS011;31265;49.680;8.608;2023-11-21T04:47:39;7.32;;;2.88;;
45540;SDS011;31265;49.680;8.608;2023-11-21T04:50:08;6.05;;;2.92;;
45540;SDS011;31265;49.680;8.608;2023-11-21T04:52:37;6.15;;;2.50;;
45540;SDS011;31265;49.680;8.608;2023-11-21T04:55:07;5.85;;;2.45;;
45540;SDS011;31265;49.680;8.608;2023-11-21T04:57:38;4.40;;;2.25;;
45540;SDS011;31265;49.680;8.608;2023-11-21T05:00:09;4.35;;;2.38;;
45540;SDS011;31265;49.680;8.608;2023-11-21T05:02:38;4.15;;;2.08;;
45540;SDS011;31265;49.680;8.608;2023-11-21T05:05:09;5.60;;;2.63;;
45540;SDS011;31265;49.680;8.608;2023-11-21T05:07:39;9.73;;;3.22;;
45540;SDS011;31265;49.680;8.608;2023-11-21T05:10:10;4.65;;;2.50;;
45540;SDS011;31265;49.680;8.608;2023-11-21T05:12:39;4.93;;;2.63;;
45540;SDS011;31265;49.680;8.608;2023-11-21T05:15:09;4.28;;;2.20;;
45540;SDS011;31265;49.680;8.608;2023-11-21T05:17:41;4.82;;;2.38;;
45540;SDS011;31265;49.680;8.608;2023-11-21T05:20:11;4.55;;;2.97;;
45540;SDS011;31265;49.680;8.608;2023-11-21T05:25:11;4.63;;;2.65;;
45540;SDS011;31265;49.680;8.608;2023-11-21T05:27:41;4.47;;;2.10;;
45540;SDS011;31265;49.680;8.608;2023-11-21T05:30:10;5.90;;;2.70;;
45540;SDS011;31265;49.680;8.608;2023-11-21T05:32:40;6.57;;;2.58;;
45540;SDS011;31265;49.680;8.608;2023-11-21T05:35:10;4.80;;;2.15;;
45540;SDS011;31265;49.680;8.608;2023-11-21T05:37:43;7.13;;;2.88;;
45540;SDS011;31265;49.680;8.608;2023-11-21T05:40:14;3.22;;;1.45;;
45540;SDS011;31265;49.680;8.608;2023-11-21T05:42:43;5.10;;;2.47;;
45540;SDS011;31265;49.680;8.608;2023-11-21T05:45:12;4.77;;;2.20;;
45540;SDS011;31265;49.680;8.608;2023-11-21T05:47:41;10.45;;;2.50;;
45540;SDS011;31265;49.680;8.608;2023-11-21T05:50:14;5.97;;;2.60;;
45540;SDS011;31265;49.680;8.608;2023-11-21T05:52:44;9.30;;;3.53;;
45540;SDS011;31265;49.680;8.608;2023-11-21T05:55:15;8.30;;;3.13;;
45540;SDS011;31265;49.680;8.608;2023-11-21T05:57:44;6.43;;;2.90;;
45540;SDS011;31265;49.680;8.608;2023-11-21T06:00:13;5.97;;;2.95;;
45540;SDS011;31265;49.680;8.608;2023-11-21T06:02:48;5.97;;;2.58;;
45540;SDS011;31265;49.680;8.608;2023-11-21T06:05:20;5.72;;;2.97;;
45540;SDS011;31265;49.680;8.608;2023-11-21T06:07:52;6.40;;;3.40;;
45540;SDS011;31265;49.680;8.608;2023-11-21T06:12:52;6.82;;;3.47;;
45540;SDS011;31265;49.680;8.608;2023-11-21T06:15:21;4.80;;;2.77;;
45540;SDS011;31265;49.680;8.608;2023-11-21T06:17:50;7.72;;;4.03;;
45540;SDS011;31265;49.680;8.608;2023-11-21T06:20:21;7.05;;;2.97;;
45540;SDS011;31265;49.680;8.608;2023-11-21T06:22:50;5.97;;;3.00;;
45540;SDS011;31265;49.680;8.608;2023-11-21T06:25:19;7.80;;;3.65;;
45540;SDS011;31265;49.680;8.608;2023-11-21T06:27:50;5.60;;;3.13;;
45540;SDS011;31265;49.680;8.608;2023-11-21T06:30:20;9.65;;;3.85;;
45540;SDS011;31265;49.680;8.608;2023-11-21T06:32:50;7.93;;;3.80;;
45540;SDS011;31265;49.680;8.608;2023-11-21T06:35:20;7.10;;;3.47;;
45540;SDS011;31265;49.680;8.608;2023-11-21T06:37:49;9.05;;;3.67;;
45540;SDS011;31265;49.680;8.608;2023-11-21T06:40:20;6.72;;;3.65;;
45540;SDS011;31265;49.680;8.608;2023-11-21T06:42:50;7.43;;;4.22;;
45540;SDS011;31265;49.680;8.608;2023-11-21T06:45:17;12.20;;;3.53;;
45540;SDS011;31265;49.680;8.608;2023-11-21T06:47:47;6.93;;;3.67;;
45540;SDS011;31265;49.680;8.608;2023-11-21T06:50:17;8.38;;;4.05;;
45540;SDS011;31265;49.680;8.608;2023-11-21T06:52:46;7.20;;;4.05;;
45540;SDS011;31265;49.680;8.608;2023-11-21T06:55:15;11.15;;;4.53;;
45540;SDS011;31265;49.680;8.608;2023-11-21T06:57:44;9.15;;;4.10;;
45540;SDS011;31265;49.680;8.608;2023-11-21T07:00:16;8.23;;;4.30;;
45540;SDS011;31265;49.680;8.608;2023-11-21T07:02:46;11.25;;;4.65;;
45540;SDS011;31265;49.680;8.608;2023-11-21T07:05:14;7.18;;;3.40;;
45540;SDS011;31265;49.680;8.608;2023-11-21T07:07:48;11.95;;;4.68;;
45540;SDS011;31265;49.680;8.608;2023-11-21T07:12:46;7.43;;;3.88;;
45540;SDS011;31265;49.680;8.608;2023-11-21T07:15:15;9.05;;;3.53;;
45540;SDS011;31265;49.680;8.608;2023-11-21T07:17:46;7.50;;;3.80;;
45540;SDS011;31265;49.680;8.608;2023-11-21T07:20:15;9.60;;;3.35;;
45540;SDS011;31265;49.680;8.608;2023-11-21T07:22:45;7.03;;;4.03;;
45540;SDS011;31265;49.680;8.608;2023-11-21T07:25:13;5.05;;;2.70;;
45540;SDS011;31265;49.680;8.608;2023-11-21T07:27:42;6.10;;;2.63;;
45540;SDS011;31265;49.680;8.608;2023-11-21T07:30:12;3.33;;;1.83;;
45540;SDS011;31265;49.680;8.608;2023-11-21T07:35:11;3.05;;;1.40;;
45540;SDS011;31265;49.680;8.608;2023-11-21T07:37:40;4.13;;;1.27;;
45540;SDS011;31265;49.680;8.608;2023-11-21T07:40:08;2.45;;;0.65;;
45540;SDS011;31265;49.680;8.608;2023-11-21T07:42:38;2.95;;;0.70;;
45540;SDS011;31265;49.680;8.608;2023-11-21T07:45:07;0.98;;;0.43;;
45540;SDS011;31265;49.680;8.608;2023-11-21T07:47:36;0.68;;;0.30;;
45540;SDS011;31265;49.680;8.608;2023-11-21T07:50:08;0.95;;;0.47;;
45540;SDS011;31265;49.680;8.608;2023-11-21T07:52:37;1.20;;;0.50;;
45540;SDS011;31265;49.680;8.608;2023-11-21T07:55:06;1.83;;;1.00;;
45540;SDS011;31265;49.680;8.608;2023-11-21T07:57:35;0.90;;;0.57;;
45540;SDS011;31265;49.680;8.608;2023-11-21T08:00:04;1.17;;;0.47;;
45540;SDS011;31265;49.680;8.608;2023-11-21T08:02:40;3.33;;;0.80;;
45540;SDS011;31265;49.680;8.608;2023-11-21T08:05:14;1.75;;;0.60;;
45540;SDS011;31265;49.680;8.608;2023-11-21T08:07:54;0.88;;;0.40;;
45540;SDS011;31265;49.680;8.608;2023-11-21T08:10:23;4.93;;;1.30;;
45540;SDS011;31265;49.680;8.608;2023-11-21T08:12:53;2.60;;;0.77;;
45540;SDS011;31265;49.680;8.608;2023-11-21T08:15:23;1.98;;;0.63;;
45540;SDS011;31265;49.680;8.608;2023-11-21T08:17:52;1.95;;;0.65;;
45540;SDS011;31265;49.680;8.608;2023-11-21T08:20:22;0.73;;;0.43;;
45540;SDS011;31265;49.680;8.608;2023-11-21T08:22:52;4.15;;;1.02;;
45540;SDS011;31265;49.680;8.608;2023-11-21T08:25:23;1.25;;;0.60;;
45540;SDS011;31265;49.680;8.608;2023-11-21T08:27:52;1.30;;;0.50;;
45540;SDS011;31265;49.680;8.608;2023-11-21T08:30:21;3.13;;;0.98;;
45540;SDS011;31265;49.680;8.608;2023-11-21T08:32:51;2.38;;;0.70;;
45540;SDS011;31265;49.680;8.608;2023-11-21T08:35:23;1.98;;;0.77;;
45540;SDS011;31265;49.680;8.608;2023-11-21T08:37:53;3.10;;;0.65;;
45540;SDS011;31265;49.680;8.608;2023-11-21T08:40:22;2.10;;;0.80;;
45540;SDS011;31265;49.680;8.608;2023-11-21T08:42:53;3.08;;;0.70;;
45540;SDS011;31265;49.680;8.608;2023-11-21T08:45:22;2.93;;;0.90;;
45540;SDS011;31265;49.680;8.608;2023-11-21T08:47:54;2.40;;;0.95;;
45540;SDS011;31265;49.680;8.608;2023-11-21T08:50:46;2.40;;;1.00;;
45540;SDS011;31265;49.680;8.608;2023-11-21T08:53:14;2.25;;;1.35;;
45540;SDS011;31265;49.680;8.608;2023-11-21T08:55:43;2.60;;;1.60;;
45540;SDS011;31265;49.680;8.608;2023-11-21T08:58:11;3.70;;;1.80;;
45540;SDS011;31265;49.680;8.608;2023-11-21T09:00:40;3.28;;;1.50;;
45540;SDS011;31265;49.680;8.608;2023-11-21T09:03:09;4.50;;;2.17;;
45540;SDS011;31265;49.680;8.608;2023-11-21T09:05:38;4.22;;;2.10;;
45540;SDS011;31265;49.680;8.608;2023-11-21T09:08:08;5.18;;;2.55;;
45540;SDS011;31265;49.680;8.608;2023-11-21T09:10:37;5.32;;;1.90;;
45540;SDS011;31265;49.680;8.608;2023-11-21T09:13:06;4.40;;;2.10;;
45540;SDS011;31265;49.680;8.608;2023-11-21T09:15:37;6.53;;;2.60;;
45540;SDS011;31265;49.680;8.608;2023-11-21T09:18:05;4.97;;;2.55;;
45540;SDS011;31265;49.680;8.608;2023-11-21T09:20:33;5.05;;;2.42;;
45540;SDS011;31265;49.680;8.608;2023-11-21T09:23:02;7.60;;;3.35;;
45540;SDS011;31265;49.680;8.608;2023-11-21T09:25:32;7.75;;;3.58;;
45540;SDS011;31265;49.680;8.608;2023-11-21T09:28:01;6.25;;;2.97;;
45540;SDS011;31265;49.680;8.608;2023-11-21T09:30:31;6.40;;;2.88;;
45540;SDS011;31265;49.680;8.608;2023-11-21T09:33:00;7.10;;;3.83;;
45540;SDS011;31265;49.680;8.608;2023-11-21T09:35:28;6.38;;;3.40;;
45540;SDS011;31265;49.680;8.608;2023-11-21T09:37:57;5.57;;;3.28;;
45540;SDS011;31265;49.680;8.608;2023-11-21T09:40:25;7.88;;;3.03;;
45540;SDS011;31265;49.680;8.608;2023-11-21T09:42:55;5.03;;;2.65;;
45540;SDS011;31265;49.680;8.608;2023-11-21T09:45:25;6.35;;;2.63;;
45540;SDS011;31265;49.680;8.608;2023-11-21T09:47:55;4.72;;;2.60;;
45540;SDS011;31265;49.680;8.608;2023-11-21T09:50:25;6.88;;;3.08;;
45540;SDS011;31265;49.680;8.608;2023-11-21T09:52:55;5.10;;;2.88;;
45540;SDS011;31265;49.680;8.608;2023-11-21T09:55:28;6.63;;;2.92;;
45540;SDS011;31265;49.680;8.608;2023-11-21T09:58:00;5.32;;;2.58;;
45540;SDS011;31265;49.680;8.608;2023-11-21T10:00:28;5.50;;;2.42;;
45540;SDS011;31265;49.680;8.608;2023-11-21T10:02:59;4.07;;;2.35;;
45540;SDS011;31265;49.680;8.608;2023-11-21T10:05:28;5.00;;;2.43;;
45540;SDS011;31265;49.680;8.608;2023-11-21T10:08:01;5.13;;;2.75;;
45540;SDS011;31265;49.680;8.608;2023-11-21T10:10:33;4.25;;;2.28;;
45540;SDS011;31265;49.680;8.608;2023-11-21T10:13:05;5.72;;;2.75;;
45540;SDS011;31265;49.680;8.608;2023-11-21T10:15:34;3.53;;;1.77;;
45540;SDS011;31265;49.680;8.608;2023-11-21T10:18:03;5.93;;;2.93;;
45540;SDS011;31265;49.680;8.608;2023-11-21T10:20:33;4.18;;;1.85;;
45540;SDS011;31265;49.680;8.608;2023-11-21T10:23:05;5.57;;;2.30;;
45540;SDS011;31265;49.680;8.608;2023-11-21T10:28:04;5.70;;;1.92;;
45540;SDS011;31265;49.680;8.608;2023-11-21T10:30:34;5.03;;;2.40;;
45540;SDS011;31265;49.680;8.608;2023-11-21T10:33:05;5.18;;;1.83;;
45540;SDS011;31265;49.680;8.608;2023-11-21T10:35:39;7.15;;;2.80;;
45540;SDS011;31265;49.680;8.608;2023-11-21T10:38:14;5.47;;;2.30;;
45540;SDS011;31265;49.680;8.608;2023-11-21T10:40:43;4.80;;;1.90;;
45540;SDS011;31265;49.680;8.608;2023-11-21T10:43:15;4.20;;;2.25;;
45540;SDS011;31265;49.680;8.608;2023-11-21T10:45:44;3.47;;;1.60;;
45540;SDS011;31265;49.680;8.608;2023-11-21T10:48:14;4.22;;;1.63;;
45540;SDS011;31265;49.680;8.608;2023-11-21T10:50:46;3.65;;;1.55;;
45540;SDS011;31265;49.680;8.608;2023-11-21T10:53:15;5.97;;;2.00;;
45540;SDS011;31265;49.680;8.608;2023-11-21T10:55:46;2.97;;;1.42;;
45540;SDS011;31265;49.680;8.608;2023-11-21T10:58:16;7.82;;;2.58;;
45540;SDS011;31265;49.680;8.608;2023-11-21T11:00:47;6.22;;;1.90;;
45540;SDS011;31265;49.680;8.608;2023-11-21T11:03:16;4.35;;;1.58;;
45540;SDS011;31265;49.680;8.608;2023-11-21T11:05:47;3.42;;;1.60;;
45540;SDS011;31265;49.680;8.608;2023-11-21T11:08:20;3.88;;;1.90;;
45540;SDS011;31265;49.680;8.608;2023-11-21T11:10:54;4.57;;;2.00;;
45540;SDS011;31265;49.680;8.608;2023-11-21T11:13:27;4.32;;;1.88;;
45540;SDS011;31265;49.680;8.608;2023-11-21T11:15:57;6.35;;;1.88;;
45540;SDS011;31265;49.680;8.608;2023-11-21T11:18:33;4.20;;;1.85;;
45540;SDS011;31265;49.680;8.608;2023-11-21T11:21:06;4.82;;;2.15;;
45540;SDS011;31265;49.680;8.608;2023-11-21T11:23:44;4.70;;;2.10;;
45540;SDS011;31265;49.680;8.608;2023-11-21T11:26:28;3.05;;;1.52;;
45540;SDS011;31265;49.680;8.608;2023-11-21T11:29:08;4.50;;;1.83;;
45540;SDS011;31265;49.680;8.608;2023-11-21T11:31:48;3.40;;;1.50;;
45540;SDS011;31265;49.680;8.608;2023-11-21T11:34:34;9.88;;;1.67;;
45540;SDS011;31265;49.680;8.608;2023-11-21T11:37:08;3.80;;;1.92;;
45540;SDS011;31265;49.680;8.608;2023-11-21T11:39:38;2.65;;;1.42;;
45540;SDS011;31265;49.680;8.608;2023-11-21T11:42:11;4.18;;;1.60;;
45540;SDS011;31265;49.680;8.608;2023-11-21T11:44:49;3.90;;;1.38;;
45540;SDS011;31265;49.680;8.608;2023-11-21T11:47:24;3.00;;;1.67;;
45540;SDS011;31265;49.680;8.608;2023-11-21T11:50:05;5.93;;;1.40;;
45540;SDS011;31265;49.680;8.608;2023-11-21T11:52:41;2.53;;;1.10;;
45540;SDS011;31265;49.680;8.608;2023-11-21T11:57:39;1.77;;;1.07;;
45540;SDS011;31265;49.680;8.608;2023-11-21T12:00:12;4.47;;;0.90;;
45540;SDS011;31265;49.680;8.608;2023-11-21T12:02:46;1.58;;;0.80;;
45540;SDS011;31265;49.680;8.608;2023-11-21T12:05:16;1.88;;;0.93;;
45540;SDS011;31265;49.680;8.608;2023-11-21T12:07:46;1.95;;;0.70;;
45540;SDS011;31265;49.680;8.608;2023-11-21T12:10:17;1.88;;;0.80;;
45540;SDS011;31265;49.680;8.608;2023-11-21T12:15:17;3.63;;;0.98;;
45540;SDS011;31265;49.680;8.608;2023-11-21T12:17:45;2.28;;;0.85;;
45540;SDS011;31265;49.680;8.608;2023-11-21T12:20:16;1.83;;;0.70;;
45540;SDS011;31265;49.680;8.608;2023-11-21T12:22:48;1.42;;;0.68;;
45540;SDS011;31265;49.680;8.608;2023-11-21T12:25:21;2.40;;;0.80;;
45540;SDS011;31265;49.680;8.608;2023-11-21T12:27:51;1.73;;;0.80;;
45540;SDS011;31265;49.680;8.608;2023-11-21T12:30:23;4.80;;;0.85;;
45540;SDS011;31265;49.680;8.608;2023-11-21T12:32:55;1.95;;;0.73;;
45540;SDS011;31265;49.680;8.608;2023-11-21T12:37:54;1.58;;;0.55;;
45540;SDS011;31265;49.680;8.608;2023-11-21T12:40:25;1.30;;;0.60;;
45540;SDS011;31265;49.680;8.608;2023-11-21T12:42:55;2.67;;;0.87;;
45540;SDS011;31265;49.680;8.608;2023-11-21T12:45:27;4.65;;;0.77;;
45540;SDS011;31265;49.680;8.608;2023-11-21T12:47:59;2.13;;;0.90;;
45540;SDS011;31265;49.680;8.608;2023-11-21T12:50:30;1.98;;;0.60;;
45540;SDS011;31265;49.680;8.608;2023-11-21T12:53:01;1.38;;;0.60;;
45540;SDS011;31265;49.680;8.608;2023-11-21T12:55:32;3.30;;;1.02;;
45540;SDS011;31265;49.680;8.608;2023-11-21T12:58:05;2.05;;;0.68;;
45540;SDS011;31265;49.680;8.608;2023-11-21T13:00:38;0.80;;;0.35;;
45540;SDS011;31265;49.680;8.608;2023-11-21T13:03:10;1.48;;;0.50;;
45540;SDS011;31265;49.680;8.608;2023-11-21T13:05:44;3.30;;;0.75;;
45540;SDS011;31265;49.680;8.608;2023-11-21T13:08:19;6.80;;;1.27;;
45540;SDS011;31265;49.680;8.608;2023-11-21T13:10:51;2.00;;;0.60;;
45540;SDS011;31265;49.680;8.608;2023-11-21T13:13:23;1.23;;;0.35;;
45540;SDS011;31265;49.680;8.608;2023-11-21T13:15:57;0.75;;;0.40;;
45540;SDS011;31265;49.680;8.608;2023-11-21T13:18:32;4.68;;;0.70;;
45540;SDS011;31265;49.680;8.608;2023-11-21T13:21:01;2.83;;;0.60;;
45540;SDS011;31265;49.680;8.608;2023-11-21T13:23:38;3.25;;;0.50;;
45540;SDS011;31265;49.680;8.608;2023-11-21T13:26:08;1.98;;;0.77;;
45540;SDS011;31265;49.680;8.608;2023-11-21T13:28:37;1.77;;;1.17;;
45540;SDS011;31265;49.680;8.608;2023-11-21T13:31:09;3.67;;;1.02;;
45540;SDS011;31265;49.680;8.608;2023-11-21T13:33:50;1.30;;;0.65;;
45540;SDS011;31265;49.680;8.608;2023-11-21T13:36:23;1.95;;;0.75;;
45540;SDS011;31265;49.680;8.608;2023-11-21T13:38:57;2.72;;;1.27;;
45540;SDS011;31265;49.680;8.608;2023-11-21T13:41:31;2.17;;;1.30;;
45540;SDS011;31265;49.680;8.608;2023-11-21T13:44:00;4.38;;;1.98;;
45540;SDS011;31265;49.680;8.608;2023-11-21T13:46:34;2.53;;;1.00;;
45540;SDS011;31265;49.680;8.608;2023-11-21T13:49:05;5.97;;;1.23;;
45540;SDS011;31265;49.680;8.608;2023-11-21T13:51:36;4.60;;;1.30;;
45540;SDS011;31265;49.680;8.608;2023-11-21T13:54:08;4.28;;;1.30;;
45540;SDS011;31265;49.680;8.608;2023-11-21T13:56:37;2.92;;;1.30;;
45540;SDS011;31265;49.680;8.608;2023-11-21T13:59:08;3.25;;;1.45;;
45540;SDS011;31265;49.680;8.608;2023-11-21T14:01:49;4.45;;;1.38;;
45540;SDS011;31265;49.680;8.608;2023-11-21T14:04:26;5.97;;;1.00;;
45540;SDS011;31265;49.680;8.608;2023-11-21T14:07:20;2.78;;;0.98;;
45540;SDS011;31265;49.680;8.608;2023-11-21T14:09:57;2.22;;;1.30;;
45540;SDS011;31265;49.680;8.608;2023-11-21T14:12:26;6.45;;;1.25;;
45540;SDS011;31265;49.680;8.608;2023-11-21T14:14:55;5.65;;;1.17;;
45540;SDS011;31265;49.680;8.608;2023-11-21T14:17:25;5.78;;;1.23;;
45540;SDS011;31265;49.680;8.608;2023-11-21T14:19:54;4.25;;;1.30;;
45540;SDS011;31265;49.680;8.608;2023-11-21T14:22:23;4.95;;;1.15;;
45540;SDS011;31265;49.680;8.608;2023-11-21T14:24:52;5.10;;;1.27;;
45540;SDS011;31265;49.680;8.608;2023-11-21T14:27:23;5.22;;;1.50;;
45540;SDS011;31265;49.680;8.608;2023-11-21T14:29:52;3.60;;;1.20;;
45540;SDS011;31265;49.680;8.608;2023-11-21T14:32:20;3.38;;;1.27;;
45540;SDS011;31265;49.680;8.608;2023-11-21T14:34:50;3.97;;;1.90;;
45540;SDS011;31265;49.680;8.608;2023-11-21T14:39:47;4.15;;;1.40;;
45540;SDS011;31265;49.680;8.608;2023-11-21T14:44:51;5.18;;;2.38;;
45540;SDS011;31265;49.680;8.608;2023-11-21T14:47:22;4.85;;;1.48;;
45540;SDS011;31265;49.680;8.608;2023-11-21T14:49:55;2.25;;;1.10;;
45540;SDS011;31265;49.680;8.608;2023-11-21T14:52:27;3.92;;;1.73;;
45540;SDS011;31265;49.680;8.608;2023-11-21T14:55:02;3.28;;;1.08;;
45540;SDS011;31265;49.680;8.608;2023-11-21T14:57:48;2.00;;;0.93;;
45540;SDS011;31265;49.680;8.608;2023-11-21T15:00:17;1.90;;;0.90;;
45540;SDS011;31265;49.680;8.608;2023-11-21T15:03:11;2.65;;;1.05;;
45540;SDS011;31265;49.680;8.608;2023-11-21T15:06:00;3.42;;;1.65;;
45540;SDS011;31265;49.680;8.608;2023-11-21T15:08:39;5.18;;;1.60;;
45540;SDS011;31265;49.680;8.608;2023-11-21T15:11:10;5.03;;;1.73;;
45540;SDS011;31265;49.680;8.608;2023-11-21T15:13:43;4.20;;;1.52;;
45540;SDS011;31265;49.680;8.608;2023-11-21T15:16:10;6.20;;;1.50;;
45540;SDS011;31265;49.680;8.608;2023-11-21T15:18:39;4.65;;;1.48;;
45540;SDS011;31265;49.680;8.608;2023-11-21T15:21:09;5.82;;;1.70;;
45540;SDS011;31265;49.680;8.608;2023-11-21T15:23:39;2.85;;;0.90;;
45540;SDS011;31265;49.680;8.608;2023-11-21T15:26:09;6.18;;;1.58;;
45540;SDS011;31265;49.680;8.608;2023-11-21T15:28:37;3.33;;;1.15;;
45540;SDS011;31265;49.680;8.608;2023-11-21T15:31:06;4.10;;;1.50;;
45540;SDS011;31265;49.680;8.608;2023-11-21T15:33:35;3.30;;;1.30;;
45540;SDS011;31265;49.680;8.608;2023-11-21T15:36:04;4.05;;;1.42;;
45540;SDS011;31265;49.680;8.608;2023-11-21T15:38:38;6.35;;;1.20;;
45540;SDS011;31265;49.680;8.608;2023-11-21T15:43:38;7.30;;;1.30;;
45540;SDS011;31265;49.680;8.608;2023-11-21T15:46:06;2.17;;;0.98;;
45540;SDS011;31265;49.680;8.608;2023-11-21T15:48:35;4.07;;;1.35;;
45540;SDS011;31265;49.680;8.608;2023-11-21T15:51:05;3.38;;;1.30;;